createdAt,value
2023-05-17T00:01:00.000Z,5
2023-05-17T00:03:32.000Z,5
2023-05-17T00:04:49.000Z,5
2023-05-17T00:06:05.000Z,5
2023-05-17T00:07:21.000Z,5
2023-05-17T00:09:54.000Z,5
2023-05-17T00:11:10.000Z,5
2023-05-17T00:12:25.000Z,5
2023-05-17T00:13:41.000Z,5
2023-05-17T00:16:14.000Z,5
2023-05-17T00:17:30.000Z,5
2023-05-17T00:18:46.000Z,5
2023-05-17T00:20:02.000Z,5
2023-05-17T00:21:19.000Z,5
2023-05-17T00:22:35.000Z,5
2023-05-17T00:23:51.000Z,5
2023-05-17T00:25:07.000Z,5
2023-05-17T00:26:24.000Z,5
2023-05-17T00:28:56.000Z,5
2023-05-17T00:30:11.000Z,5
2023-05-17T00:31:28.000Z,5
2023-05-17T00:32:44.000Z,5
2023-05-17T00:34:00.000Z,5
2023-05-17T00:35:16.000Z,5
2023-05-17T00:36:33.000Z,5
2023-05-17T00:39:05.000Z,5
2023-05-17T00:40:21.000Z,5
2023-05-17T00:41:37.000Z,5
2023-05-17T00:42:54.000Z,5
2023-05-17T00:44:10.000Z,5
2023-05-17T00:45:26.000Z,5
2023-05-17T00:46:41.000Z,5
2023-05-17T00:47:58.000Z,5
2023-05-17T00:49:14.000Z,5
2023-05-17T00:50:30.000Z,5
2023-05-17T00:51:46.000Z,5
2023-05-17T00:53:03.000Z,5
2023-05-17T00:54:19.000Z,5
2023-05-17T00:55:34.000Z,5
2023-05-17T00:56:49.000Z,5
2023-05-17T00:58:06.000Z,5
2023-05-17T00:59:22.000Z,5
2023-05-17T01:00:38.000Z,5
2023-05-17T01:01:54.000Z,5
2023-05-17T01:03:11.000Z,5
2023-05-17T01:04:27.000Z,5
2023-05-17T01:05:43.000Z,5
2023-05-17T01:06:59.000Z,5
2023-05-17T01:08:14.000Z,5
2023-05-17T01:09:30.000Z,5
2023-05-17T01:10:46.000Z,5
2023-05-17T01:12:02.694Z,5
2023-05-17T01:13:18.000Z,5
2023-05-17T01:14:35.000Z,5
2023-05-17T01:15:51.000Z,5
2023-05-17T01:17:07.000Z,5
2023-05-17T01:19:40.000Z,5
2023-05-17T01:20:56.000Z,5
2023-05-17T01:22:12.000Z,5
2023-05-17T01:23:28.000Z,5
2023-05-17T01:24:45.000Z,5
2023-05-17T01:26:00.000Z,5
2023-05-17T01:27:16.000Z,5
2023-05-17T01:28:32.000Z,5
2023-05-17T01:29:48.000Z,5
2023-05-17T01:31:05.000Z,5
2023-05-17T01:32:21.000Z,5
2023-05-17T01:33:37.000Z,5
2023-05-17T01:34:53.000Z,5
2023-05-17T01:36:10.000Z,5
2023-05-17T01:37:26.000Z,5
2023-05-17T01:38:42.000Z,5
2023-05-17T01:39:58.000Z,5
2023-05-17T01:41:15.000Z,5
2023-05-17T01:42:30.000Z,5
2023-05-17T01:45:02.000Z,5
2023-05-17T01:46:19.000Z,5
2023-05-17T01:47:35.000Z,5
2023-05-17T01:48:51.000Z,5
2023-05-17T01:50:07.000Z,5
2023-05-17T01:51:23.000Z,5
2023-05-17T01:52:40.000Z,5
2023-05-17T01:53:56.000Z,5
2023-05-17T01:55:12.000Z,5
2023-05-17T01:57:45.000Z,5
2023-05-17T01:59:00.000Z,5
2023-05-17T02:00:16.000Z,5
2023-05-17T02:01:32.000Z,5
2023-05-17T02:02:49.000Z,5
2023-05-17T02:04:05.000Z,5
2023-05-17T02:05:21.000Z,5
2023-05-17T02:06:37.000Z,5
2023-05-17T02:07:54.000Z,5
2023-05-17T02:09:10.000Z,5
2023-05-17T02:10:26.000Z,5
2023-05-17T02:11:42.000Z,5
2023-05-17T02:12:58.000Z,5
2023-05-17T02:14:15.000Z,5
2023-05-17T02:15:30.000Z,5
2023-05-17T02:16:46.000Z,5
2023-05-17T02:18:02.000Z,5
2023-05-17T02:19:19.000Z,5
2023-05-17T02:20:35.000Z,5
2023-05-17T02:21:51.000Z,5
2023-05-17T02:23:07.000Z,5
2023-05-17T02:24:24.000Z,5
2023-05-17T02:25:40.000Z,5
2023-05-17T02:26:56.000Z,5
2023-05-17T02:28:12.000Z,5
2023-05-17T02:29:29.000Z,5
2023-05-17T02:30:45.000Z,5
2023-05-17T02:32:00.000Z,5
2023-05-17T02:33:16.000Z,5
2023-05-17T02:35:49.000Z,5
2023-05-17T02:37:05.000Z,5
2023-05-17T02:38:21.000Z,5
2023-05-17T02:39:37.000Z,5
2023-05-17T02:40:54.000Z,5
2023-05-17T02:42:10.000Z,5
2023-05-17T02:43:26.000Z,5
2023-05-17T02:44:42.000Z,5
2023-05-17T02:45:59.000Z,5
2023-05-17T02:47:15.000Z,5
2023-05-17T02:48:30.000Z,5
2023-05-17T02:49:46.000Z,5
2023-05-17T02:51:03.000Z,5
2023-05-17T02:52:19.000Z,5
2023-05-17T02:53:35.000Z,5
2023-05-17T02:54:51.000Z,5
2023-05-17T02:56:07.000Z,5
2023-05-17T02:57:24.000Z,5
2023-05-17T02:58:40.000Z,5
2023-05-17T03:01:12.000Z,5
2023-05-17T03:02:29.000Z,5
2023-05-17T03:03:45.000Z,5
2023-05-17T03:05:00.000Z,5
2023-05-17T03:06:16.000Z,5
2023-05-17T03:07:33.000Z,5
2023-05-17T03:08:49.000Z,5
2023-05-17T03:10:05.000Z,5
2023-05-17T03:11:21.000Z,0
2023-05-17T03:13:54.000Z,0
2023-05-17T03:16:26.000Z,0
2023-05-17T03:17:42.000Z,0
2023-05-17T03:18:57.000Z,0
2023-05-17T03:20:13.000Z,0
2023-05-17T03:21:29.000Z,0
2023-05-17T03:22:45.000Z,0
2023-05-17T03:24:02.000Z,0
2023-05-17T03:26:34.000Z,5
2023-05-17T03:27:50.000Z,5
2023-05-17T03:29:07.000Z,5
2023-05-17T03:30:23.000Z,5
2023-05-17T03:31:39.000Z,5
2023-05-17T03:32:55.000Z,5
2023-05-17T03:34:12.000Z,11
2023-05-17T03:35:27.000Z,11
2023-05-17T03:36:43.000Z,11
2023-05-17T03:39:16.000Z,16
2023-05-17T03:40:31.000Z,22
2023-05-17T03:41:46.000Z,16
2023-05-17T03:43:02.000Z,16
2023-05-17T03:44:19.000Z,22
2023-05-17T03:45:35.000Z,22
2023-05-17T03:46:51.000Z,22
2023-05-17T03:48:07.000Z,28
2023-05-17T03:49:23.000Z,28
2023-05-17T03:50:40.000Z,28
2023-05-17T03:51:56.000Z,33
2023-05-17T03:53:11.000Z,33
2023-05-17T03:54:26.000Z,33
2023-05-17T03:55:43.000Z,39
2023-05-17T03:56:59.000Z,39
2023-05-17T03:58:15.000Z,45
2023-05-17T03:59:31.000Z,45
2023-05-17T04:00:48.000Z,45
2023-05-17T04:02:04.000Z,50
2023-05-17T04:04:36.000Z,56
2023-05-17T04:05:53.000Z,56
2023-05-17T04:07:09.000Z,56
2023-05-17T04:08:25.000Z,61
2023-05-17T04:09:41.000Z,61
2023-05-17T04:10:56.000Z,67
2023-05-17T04:12:13.000Z,67
2023-05-17T04:13:29.000Z,73
2023-05-17T04:14:45.000Z,73
2023-05-17T04:17:18.000Z,84
2023-05-17T04:18:33.000Z,84
2023-05-17T04:19:48.000Z,84
2023-05-17T04:21:04.000Z,84
2023-05-17T04:22:21.000Z,90
2023-05-17T04:23:37.000Z,90
2023-05-17T04:24:53.000Z,90
2023-05-17T04:26:09.000Z,95
2023-05-17T04:27:25.000Z,95
2023-05-17T04:29:57.000Z,101
2023-05-17T04:31:13.000Z,101
2023-05-17T04:32:30.000Z,106
2023-05-17T04:33:46.000Z,106
2023-05-17T04:35:02.000Z,106
2023-05-17T04:36:18.000Z,112
2023-05-17T04:37:34.000Z,112
2023-05-17T04:38:51.000Z,112
2023-05-17T04:40:07.000Z,118
2023-05-17T04:42:39.000Z,118
2023-05-17T04:43:55.000Z,123
2023-05-17T04:45:11.000Z,123
2023-05-17T04:46:27.000Z,123
2023-05-17T04:47:43.000Z,129
2023-05-17T04:49:00.000Z,129
2023-05-17T04:50:16.000Z,135
2023-05-17T04:51:32.000Z,135
2023-05-17T04:52:48.000Z,135
2023-05-17T04:55:21.000Z,140
2023-05-17T04:56:37.000Z,140
2023-05-17T04:57:53.000Z,146
2023-05-17T04:59:09.000Z,146
2023-05-17T05:00:25.000Z,146
2023-05-17T05:01:41.000Z,151
2023-05-17T05:02:57.000Z,151
2023-05-17T05:04:13.000Z,151
2023-05-17T05:05:30.000Z,151
2023-05-17T05:06:46.000Z,151
2023-05-17T05:08:02.000Z,157
2023-05-17T05:09:17.000Z,157
2023-05-17T05:10:33.000Z,163
2023-05-17T05:11:49.000Z,163
2023-05-17T05:13:05.000Z,163
2023-05-17T05:14:21.000Z,163
2023-05-17T05:15:38.000Z,168
2023-05-17T05:16:54.000Z,168
2023-05-17T05:18:10.000Z,168
2023-05-17T05:19:26.000Z,168
2023-05-17T05:20:43.000Z,174
2023-05-17T05:21:58.000Z,174
2023-05-17T05:23:13.000Z,174
2023-05-17T05:24:29.000Z,174
2023-05-17T05:25:46.000Z,180
2023-05-17T05:27:02.000Z,180
2023-05-17T05:28:18.000Z,180
2023-05-17T05:29:34.000Z,180
2023-05-17T05:30:50.000Z,180
2023-05-17T05:32:07.000Z,180
2023-05-17T05:33:23.000Z,185
2023-05-17T05:34:39.000Z,185
2023-05-17T05:35:55.000Z,185
2023-05-17T05:37:12.000Z,185
2023-05-17T05:38:28.000Z,185
2023-05-17T05:39:43.000Z,191
2023-05-17T05:40:59.000Z,191
2023-05-17T05:42:16.000Z,191
2023-05-17T05:43:32.000Z,191
2023-05-17T05:44:48.000Z,191
2023-05-17T05:46:04.000Z,196
2023-05-17T05:47:21.000Z,196
2023-05-17T05:48:37.000Z,196
2023-05-17T05:49:53.000Z,196
2023-05-17T05:51:09.000Z,196
2023-05-17T05:52:25.000Z,202
2023-05-17T05:53:42.000Z,202
2023-05-17T05:54:58.000Z,202
2023-05-17T05:56:13.000Z,202
2023-05-17T05:58:46.000Z,202
2023-05-17T06:00:02.000Z,208
2023-05-17T06:01:18.000Z,208
2023-05-17T06:02:34.000Z,208
2023-05-17T06:03:51.000Z,208
2023-05-17T06:05:07.000Z,208
2023-05-17T06:06:23.000Z,213
2023-05-17T06:07:39.000Z,213
2023-05-17T06:08:56.000Z,213
2023-05-17T06:11:28.000Z,213
2023-05-17T06:13:59.000Z,219
2023-05-17T06:15:15.000Z,219
2023-05-17T06:16:30.000Z,219
2023-05-17T06:17:46.000Z,219
2023-05-17T06:19:02.000Z,213
2023-05-17T06:20:19.000Z,213
2023-05-17T06:21:35.000Z,225
2023-05-17T06:22:51.000Z,230
2023-05-17T06:24:07.000Z,230
2023-05-17T06:25:24.000Z,247
2023-05-17T06:26:40.000Z,230
2023-05-17T06:27:55.000Z,230
2023-05-17T06:29:10.000Z,230
2023-05-17T06:30:27.000Z,236
2023-05-17T06:31:43.000Z,258
2023-05-17T06:32:59.000Z,286
2023-05-17T06:34:15.000Z,331
2023-05-17T06:35:32.000Z,343
2023-05-17T06:36:48.000Z,315
2023-05-17T06:38:04.000Z,275
2023-05-17T06:39:20.000Z,270
2023-05-17T06:40:36.000Z,292
2023-05-17T06:41:53.000Z,331
2023-05-17T06:43:09.000Z,365
2023-05-17T06:44:25.000Z,365
2023-05-17T06:45:40.000Z,326
2023-05-17T06:46:57.000Z,331
2023-05-17T06:48:13.000Z,343
2023-05-17T06:49:29.000Z,376
2023-05-17T06:50:45.000Z,421
2023-05-17T06:52:02.000Z,416
2023-05-17T06:53:18.000Z,382
2023-05-17T06:54:34.000Z,393
2023-05-17T06:55:50.000Z,410
2023-05-17T06:57:07.000Z,382
2023-05-17T06:58:23.000Z,393
2023-05-17T06:59:39.000Z,393
2023-05-17T07:02:11.000Z,337
2023-05-17T07:03:27.000Z,365
2023-05-17T07:04:43.000Z,421
2023-05-17T07:05:59.000Z,444
2023-05-17T07:07:15.000Z,438
2023-05-17T07:08:32.000Z,438
2023-05-17T07:09:48.000Z,388
2023-05-17T07:11:04.000Z,337
2023-05-17T07:12:20.000Z,326
2023-05-17T07:13:37.000Z,281
2023-05-17T07:14:53.000Z,247
2023-05-17T07:16:09.000Z,230
2023-05-17T07:17:25.000Z,236
2023-05-17T07:18:42.000Z,253
2023-05-17T07:19:57.000Z,253
2023-05-17T07:21:13.000Z,253
2023-05-17T07:22:29.000Z,258
2023-05-17T07:23:45.000Z,270
2023-05-17T07:25:02.000Z,275
2023-05-17T07:26:18.000Z,286
2023-05-17T07:27:34.000Z,298
2023-05-17T07:28:50.000Z,326
2023-05-17T07:30:07.000Z,365
2023-05-17T07:31:23.000Z,405
2023-05-17T07:32:39.000Z,450
2023-05-17T07:33:55.000Z,444
2023-05-17T07:35:12.000Z,438
2023-05-17T07:36:27.000Z,489
2023-05-17T07:37:43.000Z,517
2023-05-17T07:38:59.000Z,472
2023-05-17T07:40:16.000Z,410
2023-05-17T07:42:48.000Z,540
2023-05-17T07:44:04.000Z,562
2023-05-17T07:45:20.000Z,540
2023-05-17T07:46:37.000Z,517
2023-05-17T07:47:53.000Z,461
2023-05-17T07:49:09.000Z,444
2023-05-17T07:50:25.000Z,416
2023-05-17T07:51:42.000Z,405
2023-05-17T07:52:57.000Z,433
2023-05-17T07:54:13.000Z,500
2023-05-17T07:55:29.000Z,466
2023-05-17T07:56:46.000Z,450
2023-05-17T07:58:02.000Z,483
2023-05-17T07:59:18.000Z,540
2023-05-17T08:00:34.000Z,489
2023-05-17T08:01:51.000Z,506
2023-05-17T08:03:07.000Z,585
2023-05-17T08:04:23.000Z,590
2023-05-17T08:05:39.000Z,607
2023-05-17T08:06:55.000Z,568
2023-05-17T08:08:12.000Z,551
2023-05-17T08:09:27.000Z,573
2023-05-17T08:10:43.000Z,562
2023-05-17T08:11:59.000Z,562
2023-05-17T08:13:16.000Z,573
2023-05-17T08:14:32.000Z,579
2023-05-17T08:17:04.000Z,601
2023-05-17T08:18:21.000Z,630
2023-05-17T08:19:37.000Z,568
2023-05-17T08:20:53.000Z,540
2023-05-17T08:22:09.000Z,528
2023-05-17T08:23:26.000Z,579
2023-05-17T08:24:42.000Z,618
2023-05-17T08:25:57.000Z,624
2023-05-17T08:28:29.000Z,596
2023-05-17T08:29:46.000Z,568
2023-05-17T08:31:02.000Z,528
2023-05-17T08:33:34.000Z,573
2023-05-17T08:34:50.000Z,590
2023-05-17T08:36:05.000Z,579
2023-05-17T08:37:21.000Z,573
2023-05-17T08:39:54.000Z,517
2023-05-17T08:41:10.000Z,483
2023-05-17T08:42:25.000Z,472
2023-05-17T08:43:41.000Z,495
2023-05-17T08:44:58.000Z,523
2023-05-17T08:46:14.000Z,579
2023-05-17T08:47:30.000Z,618
2023-05-17T08:48:46.000Z,601
2023-05-17T08:50:03.000Z,596
2023-05-17T08:51:19.000Z,607
2023-05-17T08:52:35.000Z,568
2023-05-17T08:53:51.000Z,568
2023-05-17T08:55:07.000Z,573
2023-05-17T08:56:24.000Z,556
2023-05-17T08:57:40.000Z,551
2023-05-17T08:58:56.000Z,601
2023-05-17T09:00:11.000Z,630
2023-05-17T09:01:27.000Z,635
2023-05-17T09:02:42.000Z,646
2023-05-17T09:03:58.000Z,630
2023-05-17T09:07:47.000Z,579
2023-05-17T09:09:03.000Z,534
2023-05-17T09:11:36.000Z,511
2023-05-17T09:12:52.000Z,483
2023-05-17T09:14:08.000Z,450
2023-05-17T09:15:24.000Z,450
2023-05-17T09:16:40.000Z,461
2023-05-17T09:19:12.000Z,511
2023-05-17T09:20:27.000Z,540
2023-05-17T09:21:42.000Z,551
2023-05-17T09:22:59.000Z,551
2023-05-17T09:24:15.000Z,579
2023-05-17T09:25:31.000Z,675
2023-05-17T09:26:47.000Z,686
2023-05-17T09:28:04.000Z,703
2023-05-17T09:29:20.000Z,703
2023-05-17T09:30:36.000Z,720
2023-05-17T09:31:52.000Z,691
2023-05-17T09:34:24.000Z,731
2023-05-17T09:36:55.000Z,714
2023-05-17T09:38:11.000Z,641
2023-05-17T09:39:26.000Z,579
2023-05-17T09:40:42.000Z,556
2023-05-17T09:44:31.000Z,534
2023-05-17T09:47:03.000Z,562
2023-05-17T09:50:52.000Z,540
2023-05-17T09:52:08.000Z,483
2023-05-17T09:53:24.000Z,433
2023-05-17T09:54:41.000Z,444
2023-05-17T09:55:56.000Z,556
2023-05-17T09:57:12.000Z,686
2023-05-17T09:59:45.000Z,708
2023-05-17T10:01:01.000Z,669
2023-05-17T10:02:17.000Z,641
2023-05-17T10:03:33.000Z,635
2023-05-17T10:04:50.000Z,630
2023-05-17T10:06:06.000Z,568
2023-05-17T10:07:22.000Z,489
2023-05-17T10:08:38.000Z,450
2023-05-17T10:09:54.000Z,455
2023-05-17T10:11:11.000Z,495
2023-05-17T10:12:26.000Z,607
2023-05-17T10:14:58.000Z,871
2023-05-17T10:16:15.000Z,866
2023-05-17T10:17:31.000Z,815
2023-05-17T10:18:47.000Z,731
2023-05-17T10:20:03.000Z,635
2023-05-17T10:21:20.000Z,568
2023-05-17T10:22:36.000Z,495
2023-05-17T10:23:52.000Z,410
2023-05-17T10:25:08.000Z,348
2023-05-17T10:26:24.000Z,337
2023-05-17T10:27:39.000Z,360
2023-05-17T10:28:55.000Z,376
2023-05-17T10:30:11.000Z,393
2023-05-17T10:31:28.000Z,416
2023-05-17T10:32:44.000Z,455
2023-05-17T10:34:00.000Z,511
2023-05-17T10:35:16.000Z,568
2023-05-17T10:36:32.000Z,601
2023-05-17T10:37:49.000Z,736
2023-05-17T10:39:04.000Z,832
2023-05-17T10:40:19.000Z,877
2023-05-17T10:41:35.000Z,916
2023-05-17T10:42:52.000Z,916
2023-05-17T10:44:08.000Z,883
2023-05-17T10:45:24.000Z,871
2023-05-17T10:46:40.000Z,855
2023-05-17T10:47:57.000Z,843
2023-05-17T10:49:13.344Z,832
2023-05-17T10:50:29.000Z,849
2023-05-17T10:51:45.000Z,821
2023-05-17T10:53:02.000Z,742
2023-05-17T10:54:18.000Z,680
2023-05-17T10:55:34.000Z,613
2023-05-17T10:56:49.000Z,534
2023-05-17T10:58:05.000Z,461
2023-05-17T10:59:22.000Z,405
2023-05-17T11:00:38.000Z,393
2023-05-17T11:03:10.000Z,444
2023-05-17T11:06:59.000Z,556
2023-05-17T11:08:14.000Z,624
2023-05-17T11:09:30.000Z,646
2023-05-17T11:10:46.000Z,731
2023-05-17T11:12:02.000Z,725
2023-05-17T11:18:23.000Z,551
2023-05-17T11:19:40.000Z,601
2023-05-17T11:20:56.000Z,652
2023-05-17T11:22:12.000Z,703
2023-05-17T11:23:28.000Z,720
2023-05-17T11:24:44.000Z,686
2023-05-17T11:26:00.000Z,641
2023-05-17T11:28:31.000Z,691
2023-05-17T11:29:47.000Z,725
2023-05-17T11:31:04.000Z,753
2023-05-17T11:32:20.000Z,776
2023-05-17T11:33:36.000Z,753
2023-05-17T11:34:52.000Z,686
2023-05-17T11:36:09.000Z,601
2023-05-17T11:37:25.000Z,517
2023-05-17T11:38:41.000Z,444
2023-05-17T11:41:14.000Z,500
2023-05-17T11:42:30.000Z,472
2023-05-17T11:43:45.000Z,500
2023-05-17T11:45:01.000Z,534
2023-05-17T11:46:17.000Z,573
2023-05-17T11:47:34.000Z,607
2023-05-17T11:48:50.000Z,652
2023-05-17T11:50:06.000Z,669
2023-05-17T11:51:22.000Z,675
2023-05-17T11:53:55.000Z,753
2023-05-17T11:55:11.000Z,765
2023-05-17T11:56:27.000Z,781
2023-05-17T11:57:44.000Z,765
2023-05-17T11:59:00.000Z,815
2023-05-17T12:00:15.000Z,855
2023-05-17T12:01:31.000Z,843
2023-05-17T12:02:48.000Z,826
2023-05-17T12:04:04.000Z,815
2023-05-17T12:06:36.000Z,714
2023-05-17T12:07:52.000Z,675
2023-05-17T12:09:09.000Z,641
2023-05-17T12:10:25.000Z,652
2023-05-17T12:11:41.000Z,742
2023-05-17T12:12:57.000Z,860
2023-05-17T12:14:14.000Z,939
2023-05-17T12:15:30.000Z,950
2023-05-17T12:16:45.000Z,894
2023-05-17T12:19:18.000Z,781
2023-05-17T12:20:34.000Z,714
2023-05-17T12:23:06.000Z,703
2023-05-17T12:24:23.000Z,691
2023-05-17T12:26:55.000Z,787
2023-05-17T12:28:11.000Z,916
2023-05-17T12:29:27.000Z,916
2023-05-17T12:30:44.000Z,905
2023-05-17T12:32:00.000Z,894
2023-05-17T12:33:15.000Z,871
2023-05-17T12:34:31.000Z,832
2023-05-17T12:35:48.000Z,798
2023-05-17T12:37:04.000Z,776
2023-05-17T12:38:20.000Z,736
2023-05-17T12:39:36.000Z,731
2023-05-17T12:40:53.000Z,770
2023-05-17T12:42:09.000Z,877
2023-05-17T12:44:41.000Z,804
2023-05-17T12:45:58.000Z,663
2023-05-17T12:47:14.000Z,601
2023-05-17T12:48:30.000Z,562
2023-05-17T12:49:45.000Z,585
2023-05-17T12:51:01.000Z,613
2023-05-17T12:52:18.000Z,641
2023-05-17T12:53:33.000Z,708
2023-05-17T12:54:48.000Z,838
2023-05-17T12:57:21.000Z,1063
2023-05-17T12:58:36.000Z,1119
2023-05-17T12:59:52.000Z,1085
2023-05-17T13:01:08.000Z,973
2023-05-17T13:02:25.000Z,916
2023-05-17T13:03:41.000Z,911
2023-05-17T13:04:57.000Z,765
2023-05-17T13:06:13.000Z,703
2023-05-17T13:07:30.000Z,697
2023-05-17T13:08:46.000Z,697
2023-05-17T13:10:02.000Z,731
2023-05-17T13:11:18.000Z,720
2023-05-17T13:12:35.000Z,826
2023-05-17T13:13:51.000Z,1878
2023-05-17T13:15:06.000Z,2469
2023-05-17T13:16:22.000Z,2514
2023-05-17T13:17:38.000Z,2745
2023-05-17T13:18:55.000Z,1260
2023-05-17T13:20:11.000Z,894
2023-05-17T13:21:26.000Z,973
2023-05-17T13:22:41.000Z,1794
2023-05-17T13:23:58.000Z,2711
2023-05-17T13:25:14.000Z,2728
2023-05-17T13:26:30.000Z,2812
2023-05-17T13:27:46.000Z,3071
2023-05-17T13:29:03.000Z,1125
2023-05-17T13:30:19.000Z,928
2023-05-17T13:31:35.000Z,883
2023-05-17T13:32:51.000Z,866
2023-05-17T13:35:24.000Z,1783
2023-05-17T13:36:40.000Z,2025
2023-05-17T13:37:56.000Z,933
2023-05-17T13:39:12.000Z,928
2023-05-17T13:40:28.000Z,1141
2023-05-17T13:41:44.000Z,1012
2023-05-17T13:43:00.000Z,995
2023-05-17T13:44:16.000Z,821
2023-05-17T13:45:33.000Z,973
2023-05-17T13:46:49.000Z,922
2023-05-17T13:48:05.000Z,1080
2023-05-17T13:49:21.000Z,2677
2023-05-17T13:50:38.000Z,2863
2023-05-17T13:51:54.000Z,2981
2023-05-17T13:54:26.000Z,3189
2023-05-17T13:55:42.000Z,3341
2023-05-17T13:56:58.000Z,2908
2023-05-17T13:58:14.000Z,1119
2023-05-17T13:59:30.000Z,1006
2023-05-17T14:00:47.000Z,3110
2023-05-17T14:02:03.000Z,3093
2023-05-17T14:03:19.000Z,2941
2023-05-17T14:04:35.000Z,2683
2023-05-17T14:05:51.000Z,2930
2023-05-17T14:07:08.000Z,3200
2023-05-17T14:08:24.000Z,3262
2023-05-17T14:09:40.000Z,3150
2023-05-17T14:10:56.000Z,1243
2023-05-17T14:13:28.000Z,1141
2023-05-17T14:14:44.000Z,1186
2023-05-17T14:16:00.000Z,883
2023-05-17T14:17:17.000Z,810
2023-05-17T14:18:33.000Z,832
2023-05-17T14:19:49.000Z,900
2023-05-17T14:21:05.000Z,2851
2023-05-17T14:22:22.000Z,2784
2023-05-17T14:23:38.000Z,2874
2023-05-17T14:24:54.000Z,2908
2023-05-17T14:26:10.000Z,2711
2023-05-17T14:27:26.000Z,1816
2023-05-17T14:28:42.000Z,3673
2023-05-17T14:29:58.000Z,3538
2023-05-17T14:31:14.000Z,3622
2023-05-17T14:32:30.000Z,3549
2023-05-17T14:33:47.000Z,3594
2023-05-17T14:35:03.000Z,3318
2023-05-17T14:36:19.000Z,3465
2023-05-17T14:37:35.000Z,3256
2023-05-17T14:38:52.000Z,3532
2023-05-17T14:40:08.000Z,3015
2023-05-17T14:42:40.000Z,787
2023-05-17T14:43:56.000Z,753
2023-05-17T14:45:12.000Z,753
2023-05-17T14:46:28.000Z,708
2023-05-17T14:47:44.000Z,703
2023-05-17T14:49:00.000Z,714
2023-05-17T14:51:33.000Z,2553
2023-05-17T14:54:05.000Z,1316
2023-05-17T14:55:21.000Z,2176
2023-05-17T14:56:36.000Z,2115
2023-05-17T14:57:52.000Z,2148
2023-05-17T14:59:08.000Z,2137
2023-05-17T15:00:25.000Z,2199
2023-05-17T15:01:41.000Z,2199
2023-05-17T15:04:13.000Z,2385
2023-05-17T15:05:30.000Z,1338
2023-05-17T15:06:46.000Z,2503
2023-05-17T15:08:02.000Z,1001
2023-05-17T15:09:18.000Z,883
2023-05-17T15:10:34.000Z,742
2023-05-17T15:11:51.000Z,832
2023-05-17T15:13:06.000Z,1125
2023-05-17T15:14:22.000Z,984
2023-05-17T15:15:38.000Z,2131
2023-05-17T15:16:55.000Z,2458
2023-05-17T15:18:11.000Z,2598
2023-05-17T15:19:27.000Z,2626
2023-05-17T15:20:43.000Z,1715
2023-05-17T15:21:59.000Z,2008
2023-05-17T15:23:14.000Z,2373
2023-05-17T15:24:30.000Z,703
2023-05-17T15:25:46.000Z,894
2023-05-17T15:27:03.000Z,1192
2023-05-17T15:29:35.000Z,1282
2023-05-17T15:30:51.000Z,1395
2023-05-17T15:32:08.000Z,1659
2023-05-17T15:33:24.000Z,2053
2023-05-17T15:34:40.000Z,2266
2023-05-17T15:35:56.000Z,1687
2023-05-17T15:37:12.000Z,810
2023-05-17T15:38:29.000Z,849
2023-05-17T15:39:44.000Z,2221
2023-05-17T15:42:16.000Z,2154
2023-05-17T15:43:32.000Z,2137
2023-05-17T15:44:48.000Z,2441
2023-05-17T15:46:03.000Z,2520
2023-05-17T15:47:19.000Z,2610
2023-05-17T15:48:36.000Z,2655
2023-05-17T15:49:52.000Z,2598
2023-05-17T15:51:08.000Z,2610
2023-05-17T15:52:24.000Z,2745
2023-05-17T15:53:41.000Z,2638
2023-05-17T15:54:57.000Z,2874
2023-05-17T15:56:12.000Z,3037
2023-05-17T15:57:27.000Z,2880
2023-05-17T15:58:44.000Z,2986
2023-05-17T16:00:00.000Z,2964
2023-05-17T16:01:16.000Z,2975
2023-05-17T16:02:32.000Z,2958
2023-05-17T16:03:48.000Z,2891
2023-05-17T16:05:05.000Z,2958
2023-05-17T16:07:37.000Z,2998
2023-05-17T16:08:53.000Z,2418
2023-05-17T16:10:10.000Z,2548
2023-05-17T16:11:26.000Z,2880
2023-05-17T16:12:42.000Z,2896
2023-05-17T16:13:57.000Z,2874
2023-05-17T16:15:14.000Z,2823
2023-05-17T16:16:30.000Z,3076
2023-05-17T16:17:46.000Z,2986
2023-05-17T16:20:19.000Z,3341
2023-05-17T16:21:34.000Z,3436
2023-05-17T16:22:49.000Z,3352
2023-05-17T16:24:05.000Z,3060
2023-05-17T16:25:22.000Z,905
2023-05-17T16:26:38.000Z,478
2023-05-17T16:27:54.000Z,472
2023-05-17T16:29:10.000Z,478
2023-05-17T16:30:26.000Z,472
2023-05-17T16:31:43.000Z,455
2023-05-17T16:32:59.000Z,450
2023-05-17T16:34:14.000Z,478
2023-05-17T16:35:30.000Z,466
2023-05-17T16:36:46.000Z,466
2023-05-17T16:38:02.000Z,483
2023-05-17T16:39:18.000Z,1715
2023-05-17T16:40:34.000Z,2143
2023-05-17T16:41:51.000Z,579
2023-05-17T16:43:07.000Z,579
2023-05-17T16:45:39.000Z,1721
2023-05-17T16:46:56.000Z,590
2023-05-17T16:48:12.000Z,545
2023-05-17T16:49:28.000Z,551
2023-05-17T16:50:44.000Z,1704
2023-05-17T16:52:00.000Z,506
2023-05-17T16:53:16.000Z,478
2023-05-17T16:54:32.000Z,455
2023-05-17T16:55:48.000Z,444
2023-05-17T16:58:21.000Z,601
2023-05-17T16:59:37.000Z,495
2023-05-17T17:00:53.000Z,506
2023-05-17T17:02:09.000Z,517
2023-05-17T17:03:26.000Z,562
2023-05-17T17:04:42.000Z,1411
2023-05-17T17:05:58.000Z,691
2023-05-17T17:07:14.000Z,1102
2023-05-17T17:08:31.000Z,1046
2023-05-17T17:11:02.000Z,1001
2023-05-17T17:12:17.000Z,973
2023-05-17T17:13:33.000Z,956
2023-05-17T17:14:49.000Z,1029
2023-05-17T17:16:05.000Z,1366
2023-05-17T17:17:21.000Z,1231
2023-05-17T17:18:37.000Z,933
2023-05-17T17:19:54.000Z,855
2023-05-17T17:21:10.000Z,832
2023-05-17T17:24:59.000Z,810
2023-05-17T17:26:15.000Z,798
2023-05-17T17:27:30.000Z,815
2023-05-17T17:28:45.000Z,798
2023-05-17T17:30:02.000Z,804
2023-05-17T17:31:18.000Z,804
2023-05-17T17:32:34.000Z,815
2023-05-17T17:33:50.000Z,793
2023-05-17T17:36:23.000Z,720
2023-05-17T17:37:39.000Z,703
2023-05-17T17:38:55.000Z,703
2023-05-17T17:40:11.000Z,703
2023-05-17T17:41:28.000Z,753
2023-05-17T17:42:44.000Z,832
2023-05-17T17:44:00.000Z,703
2023-05-17T17:45:15.000Z,646
2023-05-17T17:46:32.000Z,630
2023-05-17T17:47:48.000Z,618
2023-05-17T17:49:04.000Z,607
2023-05-17T17:50:20.000Z,618
2023-05-17T17:51:37.000Z,658
2023-05-17T17:52:53.000Z,641
2023-05-17T17:54:08.000Z,573
2023-05-17T17:55:23.000Z,573
2023-05-17T17:56:40.000Z,579
2023-05-17T17:57:56.000Z,562
2023-05-17T17:59:12.000Z,540
2023-05-17T18:01:45.000Z,472
2023-05-17T18:03:01.000Z,478
2023-05-17T18:04:17.000Z,444
2023-05-17T18:05:33.000Z,416
2023-05-17T18:06:49.000Z,427
2023-05-17T18:08:06.000Z,416
2023-05-17T18:09:22.000Z,421
2023-05-17T18:10:38.000Z,416
2023-05-17T18:11:53.000Z,388
2023-05-17T18:14:26.000Z,365
2023-05-17T18:15:41.000Z,337
2023-05-17T18:16:56.000Z,281
2023-05-17T18:18:13.000Z,258
2023-05-17T18:19:29.000Z,253
2023-05-17T18:20:45.000Z,247
2023-05-17T18:22:01.000Z,241
2023-05-17T18:23:18.000Z,230
2023-05-17T18:24:34.000Z,225
2023-05-17T18:27:06.000Z,213
2023-05-17T18:28:22.000Z,208
2023-05-17T18:29:39.000Z,202
2023-05-17T18:30:55.000Z,196
2023-05-17T18:32:11.000Z,191
2023-05-17T18:33:26.000Z,180
2023-05-17T18:34:43.000Z,168
2023-05-17T18:35:59.000Z,157
2023-05-17T18:37:15.000Z,151
2023-05-17T18:39:48.000Z,140
2023-05-17T18:41:04.000Z,140
2023-05-17T18:42:20.000Z,129
2023-05-17T18:43:36.000Z,123
2023-05-17T18:44:53.000Z,118
2023-05-17T18:46:09.000Z,112
2023-05-17T18:47:25.000Z,106
2023-05-17T18:48:41.000Z,101
2023-05-17T18:49:56.000Z,95
2023-05-17T18:51:13.000Z,95
2023-05-17T18:52:29.000Z,90
2023-05-17T18:53:44.000Z,84
2023-05-17T18:54:59.000Z,84
2023-05-17T18:56:16.000Z,78
2023-05-17T18:57:32.000Z,73
2023-05-17T18:58:48.000Z,67
2023-05-17T19:00:04.000Z,61
2023-05-17T19:01:21.000Z,61
2023-05-17T19:02:37.000Z,56
2023-05-17T19:05:09.000Z,50
2023-05-17T19:06:26.000Z,45
2023-05-17T19:07:42.000Z,39
2023-05-17T19:08:58.000Z,39
2023-05-17T19:11:31.000Z,33
2023-05-17T19:12:46.000Z,28
2023-05-17T19:14:01.000Z,22
2023-05-17T19:15:17.000Z,22
2023-05-17T19:17:50.000Z,16
2023-05-17T19:20:22.000Z,11
2023-05-17T19:21:38.000Z,11
2023-05-17T19:22:55.000Z,11